Time;durP1;ratioP1;P1;durP2;ratioP2;P2;SDS_P1;SDS_P2;PMS_P1;PMS_P2;Temp;Humidity;BMP_temperature;BMP_pressure;BME280_temperature;BME280_humidity;BME280_pressure;Samples;Min_cycle;Max_cycle;Signal;HPM_P1;HPM_P2
2023/01/01 00:00:11;;;;;;;665.43;444.00;;;7.80;99.90;;;;;;4995643;28;20211;-78
2023/01/01 00:02:37;;;;;;;704.93;481.47;;;7.90;99.90;;;;;;4995768;28;20231;-79
2023/01/01 00:05:03;;;;;;;726.40;494.63;;;7.90;99.90;;;;;;4995567;28;20216;-79
2023/01/01 00:07:29;;;;;;;711.03;470.40;;;7.90;99.90;;;;;;4996414;28;20223;-79
2023/01/01 00:12:50;;;;;;;637.20;428.70;;;7.90;99.90;;;;;;4995971;28;20227;-78
2023/01/01 00:15:16;;;;;;;653.90;437.67;;;8.00;99.90;;;;;;4995456;28;20187;-79
2023/01/01 00:17:42;;;;;;;701.63;473.93;;;7.90;99.90;;;;;;4995437;28;20207;-78
2023/01/01 00:20:08;;;;;;;711.60;484.60;;;7.80;99.90;;;;;;4995356;28;20307;-78
2023/01/01 00:22:34;;;;;;;539.70;358.80;;;7.80;99.90;;;;;;4994674;28;20199;-79
2023/01/01 00:24:59;;;;;;;453.87;289.90;;;7.80;99.90;;;;;;4989181;28;20213;-79
2023/01/01 00:27:25;;;;;;;456.93;284.90;;;8.00;99.90;;;;;;4974409;28;20741;-78
2023/01/01 00:29:51;;;;;;;426.50;271.57;;;8.20;99.90;;;;;;4975788;28;20615;-78
2023/01/01 00:32:17;;;;;;;469.33;304.17;;;8.20;99.90;;;;;;4976611;28;20188;-79
2023/01/01 00:34:43;;;;;;;532.43;346.07;;;8.30;99.90;;;;;;4976163;28;20272;-78
2023/01/01 00:37:08;;;;;;;236.33;139.27;;;8.30;99.90;;;;;;4985149;28;20204;-77
2023/01/01 00:39:34;;;;;;;323.77;185.03;;;8.30;99.90;;;;;;4994145;28;20190;-77
2023/01/01 00:42:00;;;;;;;330.03;205.97;;;8.40;99.90;;;;;;4994789;28;20176;-77
2023/01/01 00:44:26;;;;;;;445.47;276.30;;;8.40;99.90;;;;;;4995493;28;20231;-77
2023/01/01 00:46:51;;;;;;;443.07;295.47;;;8.40;99.90;;;;;;4997685;28;20196;-77
2023/01/01 00:49:17;;;;;;;445.37;283.47;;;8.40;99.90;;;;;;4999168;28;20177;-78
2023/01/01 00:51:43;;;;;;;427.13;260.43;;;8.30;99.90;;;;;;4994420;28;20179;-77
2023/01/01 00:54:09;;;;;;;311.70;180.70;;;8.20;99.90;;;;;;5000942;28;20646;-77
2023/01/01 00:56:34;;;;;;;348.30;202.50;;;8.20;99.90;;;;;;4998225;28;20217;-77
2023/01/01 00:59:00;;;;;;;367.73;215.40;;;8.20;99.90;;;;;;4994207;28;20319;-78
2023/01/01 01:01:26;;;;;;;224.77;134.20;;;8.20;99.90;;;;;;4993499;28;20262;-78
2023/01/01 01:03:52;;;;;;;277.87;191.53;;;8.30;99.90;;;;;;4993416;28;20646;-77
2023/01/01 01:06:18;;;;;;;257.47;157.17;;;8.30;99.90;;;;;;4992228;28;20274;-77
2023/01/01 01:08:45;;;;;;;214.70;128.63;;;8.40;99.90;;;;;;4992406;28;20381;-78
2023/01/01 01:11:16;;;;;;;202.87;119.63;;;8.50;99.90;;;;;;4994523;28;20180;-77
2023/01/01 01:13:44;;;;;;;157.60;89.07;;;8.50;99.90;;;;;;4994537;28;20185;-77
2023/01/01 01:16:31;;;;;;;120.77;76.87;;;8.50;99.90;;;;;;4992872;28;20211;-77
2023/01/01 01:19:00;;;;;;;99.80;61.70;;;8.50;99.90;;;;;;4991809;28;20295;-78
2023/01/01 01:21:28;;;;;;;109.90;66.63;;;8.60;99.90;;;;;;4992619;28;20188;-77
2023/01/01 01:23:56;;;;;;;85.40;53.83;;;8.70;99.90;;;;;;4993107;28;20704;-78
2023/01/01 01:26:24;;;;;;;72.60;47.07;;;8.80;99.90;;;;;;4992540;28;20595;-77
2023/01/01 01:28:51;;;;;;;84.30;65.00;;;8.80;99.90;;;;;;4993265;28;20188;-78
2023/01/01 01:31:19;;;;;;;80.37;55.90;;;8.70;99.90;;;;;;4994187;28;20701;-77
2023/01/01 01:33:46;;;;;;;69.10;45.30;;;8.80;99.90;;;;;;4994207;28;20182;-78
2023/01/01 01:36:13;;;;;;;58.80;39.87;;;8.70;99.90;;;;;;4993008;28;20284;-77
2023/01/01 01:38:39;;;;;;;55.00;38.97;;;8.70;99.90;;;;;;4992604;28;20595;-77
2023/01/01 01:41:06;;;;;;;62.50;46.13;;;8.80;99.90;;;;;;4994273;28;20279;-77
2023/01/01 01:43:32;;;;;;;44.47;31.87;;;8.90;99.90;;;;;;4994003;28;20187;-77
2023/01/01 01:46:09;;;;;;;50.00;32.73;;;8.90;99.90;;;;;;4994201;28;20213;-77
2023/01/01 01:48:42;;;;;;;49.87;35.60;;;8.90;99.90;;;;;;5006214;28;20180;-77
2023/01/01 01:51:10;;;;;;;45.50;33.03;;;8.90;99.90;;;;;;5015166;28;20197;-77
2023/01/01 01:53:41;;;;;;;44.30;32.60;;;9.00;99.90;;;;;;5005063;28;20188;-77
2023/01/01 01:56:12;;;;;;;44.87;31.43;;;8.90;99.90;;;;;;4994070;28;20673;-78
2023/01/01 01:58:38;;;;;;;47.60;35.00;;;8.90;99.90;;;;;;4992716;28;20184;-78
2023/01/01 02:01:04;;;;;;;100.37;62.53;;;8.80;99.90;;;;;;4993801;28;20389;-77
2023/01/01 02:03:45;;;;;;;159.33;96.90;;;8.80;99.90;;;;;;4992962;28;20184;-77
2023/01/01 02:06:11;;;;;;;150.17;102.87;;;8.70;99.90;;;;;;4993463;28;20310;-78
2023/01/01 02:08:37;;;;;;;162.20;114.47;;;8.70;99.90;;;;;;4991411;28;20207;-78
2023/01/01 02:11:03;;;;;;;104.33;77.13;;;8.60;99.90;;;;;;4992178;28;20180;-77
2023/01/01 02:13:29;;;;;;;95.20;57.57;;;8.60;99.90;;;;;;4991890;28;20192;-77
2023/01/01 02:16:36;;;;;;;97.73;60.67;;;8.60;99.90;;;;;;4993246;28;20211;-78
2023/01/01 02:19:25;;;;;;;88.70;58.93;;;8.50;99.90;;;;;;4983958;28;20220;-77
2023/01/01 02:22:14;;;;;;;71.17;48.10;;;8.60;99.90;;;;;;4993477;28;20188;-77
2023/01/01 02:24:47;;;;;;;94.73;61.97;;;8.70;99.90;;;;;;4993170;28;20311;-77
2023/01/01 02:27:26;;;;;;;124.03;78.17;;;8.60;99.90;;;;;;4991774;28;20204;-77
2023/01/01 02:30:05;;;;;;;153.47;95.50;;;8.60;99.90;;;;;;4996489;28;20274;-78
2023/01/01 02:33:01;;;;;;;204.70;121.73;;;8.60;99.90;;;;;;4987672;28;20180;-77
2023/01/01 02:35:35;;;;;;;201.63;132.20;;;8.60;99.90;;;;;;4993042;28;20191;-77
2023/01/01 02:38:16;;;;;;;214.30;161.67;;;8.50;99.90;;;;;;4991659;28;20765;-78
2023/01/01 02:40:48;;;;;;;201.07;131.20;;;8.50;99.90;;;;;;4980876;28;20189;-77
2023/01/01 02:43:14;;;;;;;221.67;132.87;;;8.50;99.90;;;;;;4971901;28;20218;-78
2023/01/01 02:45:40;;;;;;;226.60;171.90;;;8.40;99.90;;;;;;4973845;28;20263;-78
2023/01/01 02:48:48;;;;;;;198.17;160.37;;;8.30;99.90;;;;;;4993874;28;20180;-78
2023/01/01 02:51:13;;;;;;;152.80;94.83;;;8.20;99.90;;;;;;4996417;28;20180;-79
2023/01/01 02:53:50;;;;;;;147.63;97.47;;;8.20;99.90;;;;;;4992456;28;20184;-79
2023/01/01 02:56:29;;;;;;;143.33;97.27;;;8.20;99.90;;;;;;4991021;28;20658;-77
2023/01/01 03:02:57;;;;;;;123.50;78.93;;;8.40;99.90;;;;;;4992214;28;20230;-77
2023/01/01 03:05:22;;;;;;;115.60;64.53;;;8.50;99.90;;;;;;4992301;28;20208;-77
2023/01/01 03:08:14;;;;;;;89.13;60.50;;;8.40;99.90;;;;;;4990994;28;20319;-77
2023/01/01 03:10:42;;;;;;;87.27;57.30;;;8.70;99.90;;;;;;4992555;28;20235;-77
2023/01/01 03:13:14;;;;;;;97.80;74.47;;;8.90;99.90;;;;;;4990741;28;20176;-77
2023/01/01 03:15:58;;;;;;;94.20;85.03;;;8.90;99.90;;;;;;4991617;28;20188;-77
2023/01/01 03:19:09;;;;;;;110.07;99.17;;;9.00;99.90;;;;;;4991865;28;20616;-77
2023/01/01 03:21:40;;;;;;;80.47;61.93;;;9.00;99.90;;;;;;4984416;28;20196;-78
2023/01/01 03:24:10;;;;;;;85.33;57.73;;;9.10;99.90;;;;;;4991160;28;20188;-77
2023/01/01 03:26:38;;;;;;;82.37;58.33;;;9.10;99.90;;;;;;5003270;28;20212;-77
2023/01/01 03:29:09;;;;;;;85.03;58.53;;;9.00;99.90;;;;;;5011785;28;20168;-78
2023/01/01 03:31:38;;;;;;;78.57;57.37;;;8.90;99.90;;;;;;5004541;28;20188;-78
2023/01/01 03:34:09;;;;;;;78.73;56.80;;;8.80;99.90;;;;;;4991067;28;20196;-78
2023/01/01 03:36:38;;;;;;;66.87;45.37;;;8.80;99.90;;;;;;4991539;28;20211;-78
2023/01/01 03:39:09;;;;;;;57.27;38.33;;;8.70;99.90;;;;;;4990403;28;20232;-78
2023/01/01 03:41:43;;;;;;;44.33;31.33;;;8.80;99.90;;;;;;4991906;28;20271;-77
2023/01/01 03:44:22;;;;;;;33.67;25.83;;;9.00;99.90;;;;;;4990777;28;20188;-77
2023/01/01 03:46:48;;;;;;;19.27;15.30;;;9.10;99.90;;;;;;4989804;28;20210;-78
2023/01/01 03:49:15;;;;;;;24.20;16.53;;;9.30;99.90;;;;;;4990600;28;20176;-78
2023/01/01 03:51:56;;;;;;;12.03;10.77;;;9.50;99.90;;;;;;4991739;28;20173;-78
2023/01/01 03:54:53;;;;;;;20.53;18.83;;;10.00;99.90;;;;;;4990938;28;20175;-79
2023/01/01 03:57:25;;;;;;;18.17;16.80;;;10.30;99.90;;;;;;4990987;28;20203;-78
2023/01/01 04:00:10;;;;;;;16.33;14.83;;;10.60;99.90;;;;;;4990666;28;20194;-76
2023/01/01 04:02:42;;;;;;;25.67;22.60;;;10.70;99.90;;;;;;4992522;28;20185;-78
2023/01/01 04:05:11;;;;;;;21.37;19.17;;;10.70;99.90;;;;;;4996079;28;20701;-78
2023/01/01 04:07:38;;;;;;;36.53;27.63;;;10.50;99.90;;;;;;4989102;28;20215;-78
2023/01/01 04:10:15;;;;;;;32.40;24.30;;;10.40;99.90;;;;;;4991833;28;20554;-78
2023/01/01 04:12:44;;;;;;;40.73;34.57;;;10.10;99.90;;;;;;4992923;28;20202;-78
2023/01/01 04:15:10;;;;;;;37.17;33.37;;;10.00;99.90;;;;;;4993534;28;20238;-78
2023/01/01 04:17:36;;;;;;;41.23;34.60;;;9.80;99.90;;;;;;4995119;28;20208;-78
2023/01/01 04:20:02;;;;;;;28.30;22.30;;;9.60;99.90;;;;;;4997278;28;20184;-77
2023/01/01 04:22:27;;;;;;;34.10;21.77;;;9.50;99.90;;;;;;4997150;28;20188;-78
2023/01/01 04:24:53;;;;;;;30.83;22.03;;;9.50;99.90;;;;;;4991346;28;20267;-78
2023/01/01 04:27:19;;;;;;;26.00;23.30;;;9.30;99.90;;;;;;4989769;28;20224;-78
2023/01/01 04:29:44;;;;;;;35.67;32.23;;;9.40;99.90;;;;;;4991025;28;20198;-77
2023/01/01 04:32:10;;;;;;;38.50;34.93;;;9.70;99.90;;;;;;4991691;28;20188;-77
2023/01/01 04:34:36;;;;;;;19.77;16.80;;;9.80;99.90;;;;;;4990502;28;20188;-78
2023/01/01 04:37:02;;;;;;;19.27;17.43;;;9.80;99.90;;;;;;4989844;28;20721;-77
2023/01/01 04:39:27;;;;;;;24.20;21.60;;;9.80;99.90;;;;;;4977090;28;20181;-77
2023/01/01 04:41:53;;;;;;;17.07;12.80;;;9.90;99.90;;;;;;4994978;28;20183;-77
2023/01/01 04:44:19;;;;;;;11.97;10.20;;;9.90;99.90;;;;;;4995031;28;20185;-78
2023/01/01 04:46:45;;;;;;;18.47;14.27;;;10.00;99.90;;;;;;4994681;28;20291;-78
2023/01/01 04:49:10;;;;;;;13.90;12.43;;;10.00;99.90;;;;;;4994971;28;20655;-78
2023/01/01 04:51:36;;;;;;;29.03;25.93;;;9.90;99.90;;;;;;4995457;28;20176;-77
2023/01/01 04:54:02;;;;;;;12.33;11.03;;;9.90;99.90;;;;;;5000070;28;20183;-77
2023/01/01 04:56:28;;;;;;;32.10;28.83;;;9.90;99.90;;;;;;5000718;28;20208;-77
2023/01/01 04:58:56;;;;;;;19.80;17.60;;;10.00;99.90;;;;;;4998252;28;20206;-79
2023/01/01 05:01:27;;;;;;;33.20;30.53;;;9.90;99.90;;;;;;4977314;28;20794;-78
2023/01/01 05:03:55;;;;;;;16.73;15.20;;;9.80;99.90;;;;;;4986833;28;20208;-78
2023/01/01 05:06:21;;;;;;;12.87;11.57;;;9.80;99.90;;;;;;5015573;28;20220;-77
2023/01/01 05:08:49;;;;;;;9.13;8.37;;;9.80;99.90;;;;;;5026817;22;20285;-76
2023/01/01 05:11:27;;;;;;;9.37;8.40;;;9.80;99.90;;;;;;5011696;28;20190;-76
2023/01/01 05:13:54;;;;;;;9.60;8.90;;;9.90;99.90;;;;;;5004998;28;20184;-76
2023/01/01 05:16:26;;;;;;;8.93;8.23;;;10.00;99.90;;;;;;5015499;28;20206;-74
2023/01/01 05:18:53;;;;;;;9.50;8.60;;;10.10;99.90;;;;;;5012509;28;20208;-73
2023/01/01 05:21:21;;;;;;;8.07;7.27;;;10.00;99.90;;;;;;5012772;28;20203;-76
2023/01/01 05:23:47;;;;;;;8.00;7.40;;;10.00;99.90;;;;;;5011024;28;20184;-76
2023/01/01 05:26:15;;;;;;;15.87;14.73;;;10.00;99.90;;;;;;5012815;28;20215;-76
2023/01/01 05:28:41;;;;;;;9.50;6.67;;;10.00;99.90;;;;;;5012133;28;20291;-76
2023/01/01 05:31:13;;;;;;;8.33;7.57;;;10.00;99.90;;;;;;5018297;28;20622;-74
2023/01/01 05:33:39;;;;;;;9.87;8.87;;;10.20;99.90;;;;;;5018241;28;20215;-74
2023/01/01 05:36:07;;;;;;;9.20;8.50;;;10.30;99.90;;;;;;5012873;28;20234;-74
2023/01/01 05:38:34;;;;;;;11.83;10.93;;;10.40;99.90;;;;;;5011563;28;20291;-76
2023/01/01 05:41:06;;;;;;;38.27;36.17;;;10.40;99.90;;;;;;5011076;28;20180;-74
2023/01/01 05:43:33;;;;;;;17.13;15.87;;;10.50;99.90;;;;;;5012732;28;20195;-74
2023/01/01 05:46:04;;;;;;;34.27;32.33;;;10.50;99.90;;;;;;5012428;28;20217;-74
2023/01/01 05:48:30;;;;;;;36.10;34.13;;;10.60;99.90;;;;;;5011639;28;20282;-70
2023/01/01 05:51:13;;;;;;;45.03;42.03;;;10.70;99.90;;;;;;5010179;28;20175;-67
2023/01/01 05:53:39;;;;;;;32.83;30.90;;;10.80;99.90;;;;;;5012287;28;20187;-74
2023/01/01 05:56:06;;;;;;;11.40;10.70;;;10.90;99.90;;;;;;5011147;28;20393;-74
2023/01/01 05:58:34;;;;;;;10.17;9.47;;;10.90;99.90;;;;;;5010254;28;20210;-74
2023/01/01 06:01:07;;;;;;;10.57;9.67;;;10.80;99.90;;;;;;5012242;28;20664;-70
2023/01/01 06:03:33;;;;;;;9.43;8.80;;;10.70;99.90;;;;;;5012193;28;20656;-71
2023/01/01 06:06:03;;;;;;;10.07;9.27;;;10.70;99.90;;;;;;5001421;28;20245;-72
2023/01/01 06:08:29;;;;;;;10.50;9.57;;;10.70;99.90;;;;;;5010690;28;20302;-71
2023/01/01 06:11:03;;;;;;;9.43;8.90;;;10.70;99.90;;;;;;5011882;28;20606;-71
2023/01/01 06:13:29;;;;;;;10.43;9.67;;;10.80;99.90;;;;;;5011712;28;20599;-70
2023/01/01 06:15:56;;;;;;;14.13;13.07;;;10.80;99.90;;;;;;5011709;28;20250;-70
2023/01/01 06:18:22;;;;;;;17.87;16.73;;;10.80;99.90;;;;;;5011021;28;20583;-70
2023/01/01 06:20:48;;;;;;;12.23;11.20;;;10.70;99.90;;;;;;5011599;28;20187;-72
2023/01/01 06:23:14;;;;;;;15.73;14.63;;;10.70;99.90;;;;;;5011874;28;20660;-73
2023/01/01 06:25:40;;;;;;;23.07;21.67;;;10.90;99.90;;;;;;5011947;28;20297;-73
2023/01/01 06:28:05;;;;;;;23.57;21.93;;;10.90;99.90;;;;;;5010276;28;20203;-71
2023/01/01 06:30:33;;;;;;;22.33;21.03;;;10.90;99.90;;;;;;5010983;28;20203;-71
2023/01/01 06:33:00;;;;;;;17.73;16.83;;;10.90;99.90;;;;;;5011217;28;20274;-71
2023/01/01 06:35:26;;;;;;;23.80;22.53;;;10.80;99.90;;;;;;5011308;28;20747;-70
2023/01/01 06:37:52;;;;;;;25.27;23.80;;;10.80;99.90;;;;;;5010500;28;20238;-71
2023/01/01 06:40:18;;;;;;;18.97;17.77;;;10.80;99.90;;;;;;5011121;28;20188;-70
2023/01/01 06:42:44;;;;;;;15.33;14.53;;;10.80;99.90;;;;;;5011193;28;20226;-72
2023/01/01 06:45:10;;;;;;;13.27;12.40;;;10.90;99.90;;;;;;5011657;28;20290;-70
2023/01/01 06:47:36;;;;;;;18.73;17.43;;;10.90;99.90;;;;;;5010807;28;20628;-70
2023/01/01 06:50:03;;;;;;;13.03;12.33;;;10.90;99.90;;;;;;5011099;28;20168;-70
2023/01/01 06:52:29;;;;;;;13.67;12.67;;;11.00;99.90;;;;;;5011123;28;20184;-73
2023/01/01 06:54:54;;;;;;;9.63;9.03;;;11.10;99.90;;;;;;5009592;28;20574;-73
2023/01/01 06:57:20;;;;;;;8.23;7.57;;;11.20;99.90;;;;;;5010305;28;20186;-73
2023/01/01 06:59:46;;;;;;;7.13;6.57;;;11.30;99.90;;;;;;5010533;28;20229;-72
2023/01/01 07:02:11;;;;;;;10.77;6.53;;;11.40;99.90;;;;;;5010576;28;20192;-73
2023/01/01 07:04:38;;;;;;;7.37;6.77;;;11.60;99.90;;;;;;5009940;28;20203;-72
2023/01/01 07:07:04;;;;;;;7.27;6.87;;;11.50;99.90;;;;;;5010085;28;20183;-72
2023/01/01 07:09:30;;;;;;;9.20;7.10;;;11.50;99.90;;;;;;5011093;28;20284;-69
2023/01/01 07:11:55;;;;;;;7.40;6.80;;;11.30;99.90;;;;;;5004022;28;20282;-69
2023/01/01 07:14:21;;;;;;;8.00;6.70;;;11.30;99.90;;;;;;5017789;28;20754;-69
2023/01/01 07:16:47;;;;;;;7.73;7.20;;;11.30;99.90;;;;;;5013861;28;20262;-69
2023/01/01 07:19:13;;;;;;;8.47;7.77;;;11.40;99.90;;;;;;5009702;28;20194;-69
2023/01/01 07:21:53;;;;;;;9.77;8.97;;;11.50;99.90;;;;;;5010278;28;20207;-69
2023/01/01 07:24:19;;;;;;;9.70;9.20;;;11.50;99.90;;;;;;5010685;28;20175;-69
2023/01/01 07:26:45;;;;;;;10.87;10.03;;;11.40;99.90;;;;;;5009545;28;20182;-69
2023/01/01 07:29:11;;;;;;;11.60;10.77;;;11.40;99.90;;;;;;5002302;28;20583;-69
2023/01/01 07:31:39;;;;;;;11.67;10.87;;;11.30;99.90;;;;;;5009690;28;20179;-69
2023/01/01 07:34:06;;;;;;;12.50;11.40;;;11.30;99.90;;;;;;5009905;28;20186;-69
2023/01/01 07:36:32;;;;;;;11.53;10.73;;;11.40;99.90;;;;;;5010715;28;20198;-69
2023/01/01 07:38:58;;;;;;;11.60;10.90;;;11.40;99.90;;;;;;5009791;28;20229;-69
2023/01/01 07:41:24;;;;;;;12.17;11.37;;;11.40;99.90;;;;;;5009441;28;20751;-69
2023/01/01 07:43:50;;;;;;;13.67;12.67;;;11.40;99.90;;;;;;5010262;28;20652;-67
2023/01/01 07:46:17;;;;;;;13.80;12.80;;;11.40;99.90;;;;;;5010491;28;20616;-69
2023/01/01 07:48:43;;;;;;;13.50;12.60;;;11.30;99.90;;;;;;5008822;28;20647;-69
2023/01/01 07:51:09;;;;;;;14.87;13.47;;;11.30;99.90;;;;;;5010529;28;20663;-69
2023/01/01 07:53:35;;;;;;;14.77;13.77;;;11.10;99.90;;;;;;5010424;28;20176;-69
2023/01/01 07:56:01;;;;;;;13.60;12.60;;;11.00;99.90;;;;;;5008588;28;20188;-69
2023/01/01 07:58:27;;;;;;;14.10;13.07;;;11.10;99.90;;;;;;5009663;28;20215;-69
2023/01/01 08:00:52;;;;;;;15.37;14.27;;;11.20;99.90;;;;;;5010443;28;20551;-69
2023/01/01 08:03:18;;;;;;;15.07;14.07;;;11.30;99.90;;;;;;5010324;28;20270;-69
2023/01/01 08:05:44;;;;;;;17.43;16.20;;;11.50;99.90;;;;;;5003230;28;20196;-69
2023/01/01 08:08:10;;;;;;;23.90;22.40;;;11.60;99.90;;;;;;4989899;28;20220;-71
2023/01/01 08:10:37;;;;;;;26.67;24.90;;;11.70;99.90;;;;;;4988965;28;20247;-73
2023/01/01 08:13:05;;;;;;;34.97;32.67;;;11.80;99.90;;;;;;5003973;28;20268;-72
2023/01/01 08:15:31;;;;;;;35.93;33.73;;;11.80;99.90;;;;;;5012041;28;20226;-70
2023/01/01 08:17:58;;;;;;;37.33;34.90;;;11.80;99.90;;;;;;5012607;28;20207;-72
2023/01/01 08:20:25;;;;;;;40.20;37.70;;;11.80;99.90;;;;;;5014253;28;20241;-75
2023/01/01 08:22:50;;;;;;;41.00;38.43;;;11.80;99.90;;;;;;5013896;28;20253;-72
2023/01/01 08:25:16;;;;;;;37.97;35.60;;;11.80;99.90;;;;;;5012840;28;20820;-72
2023/01/01 08:27:42;;;;;;;37.37;34.80;;;11.80;99.90;;;;;;5012977;28;20231;-73
2023/01/01 08:30:10;;;;;;;40.23;37.57;;;11.70;99.90;;;;;;5013458;28;20543;-73
2023/01/01 08:32:36;;;;;;;38.50;36.10;;;11.60;99.90;;;;;;5011587;28;20187;-73
2023/01/01 08:35:02;;;;;;;38.20;35.70;;;11.50;99.90;;;;;;5013876;28;20257;-73
2023/01/01 08:37:28;;;;;;;31.27;29.17;;;11.40;99.90;;;;;;5012868;28;20291;-72
2023/01/01 08:39:54;;;;;;;14.47;13.37;;;11.30;99.90;;;;;;5013430;28;20271;-72
2023/01/01 08:42:20;;;;;;;15.63;14.27;;;11.20;99.90;;;;;;5012231;28;20269;-72
2023/01/01 08:44:45;;;;;;;16.43;15.27;;;11.20;99.90;;;;;;5013565;28;20223;-72
2023/01/01 08:47:29;;;;;;;20.30;18.97;;;11.20;99.90;;;;;;5011986;28;20187;-72
2023/01/01 08:49:55;;;;;;;18.80;17.40;;;11.20;99.90;;;;;;5012425;28;20178;-72
2023/01/01 08:52:21;;;;;;;16.20;14.90;;;11.20;99.90;;;;;;5012570;28;20641;-72
2023/01/01 08:54:50;;;;;;;14.03;12.93;;;11.30;99.90;;;;;;4993069;28;20677;-72
2023/01/01 08:57:16;;;;;;;9.63;8.83;;;11.40;99.90;;;;;;5003019;28;20195;-73
2023/01/01 08:59:42;;;;;;;12.13;11.10;;;11.50;99.90;;;;;;5011292;28;20176;-72
2023/01/01 09:02:10;;;;;;;15.53;14.43;;;11.80;99.90;;;;;;5010839;28;20203;-73
2023/01/01 09:04:35;;;;;;;15.17;13.80;;;12.20;99.90;;;;;;5000993;28;20187;-72
2023/01/01 09:07:02;;;;;;;21.10;19.50;;;12.60;99.90;;;;;;5003436;28;20179;-73
2023/01/01 09:09:27;;;;;;;30.97;29.17;;;12.90;99.90;;;;;;5002105;28;20216;-73
2023/01/01 09:11:57;;;;;;;35.20;33.10;;;12.90;99.90;;;;;;5018172;28;20206;-73
2023/01/01 09:14:24;;;;;;;33.70;31.10;;;13.30;99.90;;;;;;4999046;28;20177;-72
2023/01/01 09:16:49;;;;;;;20.27;19.00;;;13.90;99.90;;;;;;5004037;28;20654;-72
2023/01/01 09:19:15;;;;;;;9.90;8.93;;;14.40;99.90;;;;;;5010430;28;20226;-72
2023/01/01 09:21:41;;;;;;;9.53;8.83;;;15.00;99.90;;;;;;5002063;28;20777;-72
2023/01/01 09:24:07;;;;;;;10.27;9.47;;;15.20;99.90;;;;;;5004851;28;20187;-72
2023/01/01 09:26:33;;;;;;;10.40;9.40;;;15.10;99.90;;;;;;5002140;28;20203;-72
2023/01/01 09:28:59;;;;;;;11.03;9.73;;;14.90;99.90;;;;;;5003330;28;20282;-72
2023/01/01 09:31:25;;;;;;;10.70;9.90;;;14.60;99.90;;;;;;4998511;28;20744;-72
2023/01/01 09:33:51;;;;;;;9.73;8.83;;;14.40;99.90;;;;;;5005293;28;20266;-72
2023/01/01 09:36:19;;;;;;;17.23;14.73;;;14.20;99.90;;;;;;5012670;28;20190;-72
2023/01/01 09:38:53;;;;;;;13.77;12.13;;;14.10;99.90;;;;;;5011047;28;20204;-72
2023/01/01 09:41:54;;;;;;;11.67;10.53;;;14.00;99.90;;;;;;5006024;28;20241;-72
2023/01/01 09:44:39;;;;;;;11.80;10.60;;;13.90;99.90;;;;;;4993266;28;20189;-72
2023/01/01 09:47:33;;;;;;;11.27;9.67;;;13.90;99.90;;;;;;4979780;28;20207;-72
2023/01/01 09:50:05;;;;;;;11.00;9.90;;;13.80;99.90;;;;;;5011796;28;20740;-71
2023/01/01 09:52:42;;;;;;;11.67;10.13;;;13.80;99.90;;;;;;5011232;28;20230;-73
2023/01/01 09:55:25;;;;;;;18.40;14.40;;;13.70;99.90;;;;;;5009408;28;20192;-71
2023/01/01 09:57:51;;;;;;;15.07;12.53;;;13.60;99.90;;;;;;4995600;28;20199;-72
2023/01/01 10:00:18;;;;;;;15.03;13.53;;;13.60;99.90;;;;;;5006530;28;20229;-72
2023/01/01 10:03:16;;;;;;;15.57;14.00;;;13.70;99.90;;;;;;5009920;28;20279;-72
2023/01/01 10:06:07;;;;;;;13.40;12.00;;;13.50;99.90;;;;;;5012635;28;20251;-73
2023/01/01 10:09:06;;;;;;;11.40;10.23;;;13.50;99.90;;;;;;5011216;28;20212;-72
2023/01/01 10:12:09;;;;;;;10.13;9.13;;;13.60;99.90;;;;;;5010717;28;20207;-72
2023/01/01 10:14:40;;;;;;;8.87;8.07;;;13.50;99.90;;;;;;4988638;28;20253;-71
2023/01/01 10:17:22;;;;;;;8.87;8.07;;;13.50;99.90;;;;;;5009324;28;20184;-72
2023/01/01 10:19:59;;;;;;;10.23;8.33;;;13.50;99.90;;;;;;5011548;28;20648;-70
2023/01/01 10:22:36;;;;;;;9.47;8.57;;;13.70;99.90;;;;;;5011993;28;20270;-71
2023/01/01 10:25:13;;;;;;;9.83;9.03;;;14.20;99.90;;;;;;5009700;28;20199;-72
2023/01/01 10:27:56;;;;;;;11.73;10.73;;;14.80;99.90;;;;;;5009266;28;20210;-71
2023/01/01 10:30:23;;;;;;;15.77;13.97;;;15.10;99.90;;;;;;5010856;28;20275;-71
2023/01/01 10:32:52;;;;;;;12.60;11.33;;;15.30;99.90;;;;;;5010030;28;20180;-71
2023/01/01 10:35:31;;;;;;;21.83;13.67;;;15.40;99.90;;;;;;5011139;28;20199;-72
2023/01/01 10:38:02;;;;;;;23.53;17.90;;;15.50;99.90;;;;;;5019933;28;20734;-71
2023/01/01 10:40:29;;;;;;;22.13;17.60;;;15.50;99.90;;;;;;5011875;28;20184;-71
2023/01/01 10:43:01;;;;;;;14.73;13.27;;;15.80;99.90;;;;;;5011732;28;20275;-71
2023/01/01 10:45:44;;;;;;;17.73;16.17;;;16.40;99.90;;;;;;5010743;28;20581;-71
2023/01/01 10:48:16;;;;;;;21.73;19.83;;;16.90;99.90;;;;;;5010929;28;20199;-71
2023/01/01 10:50:45;;;;;;;22.80;20.83;;;17.10;99.90;;;;;;5011332;28;20180;-72
2023/01/01 10:53:29;;;;;;;21.03;19.53;;;17.30;99.90;;;;;;5011800;28;20602;-72
2023/01/01 10:56:13;;;;;;;17.30;16.10;;;17.00;99.90;;;;;;5011661;28;20672;-71
2023/01/01 10:58:55;;;;;;;18.73;17.30;;;17.00;99.90;;;;;;5010747;28;20219;-71
2023/01/01 11:01:32;;;;;;;29.87;27.73;;;17.10;99.90;;;;;;5011373;28;20270;-71
2023/01/01 11:04:00;;;;;;;36.53;34.33;;;17.70;99.90;;;;;;5010021;28;20184;-71
2023/01/01 11:06:35;;;;;;;42.37;39.80;;;18.60;99.90;;;;;;5011589;28;20227;-72
2023/01/01 11:09:05;;;;;;;20.63;19.30;;;19.60;99.90;;;;;;5017017;23;20227;-82
2023/01/01 11:11:41;;;;;;;12.43;11.23;;;20.30;99.90;;;;;;5026772;28;20238;-79
2023/01/01 11:14:23;;;;;;;13.43;12.50;;;20.60;99.90;;;;;;5014101;28;20179;-82
2023/01/01 11:16:50;;;;;;;13.77;12.57;;;21.00;99.90;;;;;;5019547;28;20179;-80
2023/01/01 11:19:32;;;;;;;12.80;11.73;;;21.60;99.90;;;;;;5025656;28;20641;-80
2023/01/01 11:21:59;;;;;;;12.23;11.27;;;22.30;99.90;;;;;;5023185;28;20183;-81
2023/01/01 11:24:34;;;;;;;10.47;9.23;;;22.40;99.90;;;;;;5040800;28;20186;-79
2023/01/01 11:27:20;;;;;;;15.97;14.77;;;23.00;99.90;;;;;;5022871;28;20190;-80
2023/01/01 11:29:47;;;;;;;22.73;20.83;;;23.70;97.80;;;;;;5031649;28;20704;-82
2023/01/01 11:32:26;;;;;;;27.63;25.00;;;23.30;98.80;;;;;;5042551;28;20187;-80
2023/01/01 11:35:01;;;;;;;20.60;12.07;;;24.00;98.20;;;;;;5047277;28;20206;-77
2023/01/01 11:37:39;;;;;;;19.80;13.63;;;24.80;96.20;;;;;;5009697;28;20737;-74
2023/01/01 11:40:14;;;;;;;13.30;12.02;;;25.00;95.00;;;;;;5011161;28;20289;-75
2023/01/01 11:42:47;;;;;;;24.63;18.90;;;24.90;94.40;;;;;;5009679;28;20868;-76
2023/01/01 11:45:22;;;;;;;19.43;14.27;;;24.70;94.60;;;;;;5010154;28;20207;-75
2023/01/01 11:48:13;;;;;;;13.75;12.43;;;24.70;94.00;;;;;;5007869;28;20179;-75
2023/01/01 11:50:47;;;;;;;11.52;10.60;;;25.10;93.70;;;;;;5021690;28;20567;-75
2023/01/01 11:53:22;;;;;;;10.00;9.23;;;25.00;92.90;;;;;;5033666;28;20209;-75
2023/01/01 11:56:00;;;;;;;11.17;10.30;;;24.30;93.20;;;;;;5033597;28;20244;-75
2023/01/01 11:58:39;;;;;;;9.17;8.50;;;24.10;93.70;;;;;;5032665;28;20191;-74
2023/01/01 12:01:26;;;;;;;11.35;10.45;;;24.10;92.60;;;;;;5023428;28;20211;-75
2023/01/01 12:03:51;;;;;;;9.60;8.75;;;23.70;92.90;;;;;;5031639;28;20194;-75
2023/01/01 12:06:33;;;;;;;9.77;7.90;;;24.20;91.40;;;;;;5034399;28;20202;-75
2023/01/01 12:09:13;;;;;;;9.68;7.15;;;24.50;90.30;;;;;;5033283;28;20175;-75
2023/01/01 12:12:22;;;;;;;9.98;5.85;;;25.10;86.00;;;;;;5018634;28;20187;-75
2023/01/01 12:15:16;;;;;;;6.93;6.43;;;25.50;84.00;;;;;;4953457;29;20337;-75
2023/01/01 12:17:46;;;;;;;8.82;5.95;;;25.90;84.30;;;;;;4950405;29;20197;-76
2023/01/01 12:20:39;;;;;;;6.40;5.25;;;26.00;80.60;;;;;;4999844;28;20260;-75
2023/01/01 12:23:08;;;;;;;6.20;5.68;;;24.70;81.00;;;;;;5034152;28;20209;-75
2023/01/01 12:25:45;;;;;;;6.20;5.45;;;25.10;82.20;;;;;;5034176;28;20222;-75
2023/01/01 12:28:11;;;;;;;6.18;4.80;;;24.90;82.90;;;;;;5033132;28;20175;-75
2023/01/01 12:30:55;;;;;;;6.25;5.60;;;25.30;80.70;;;;;;5026088;28;20865;-75
2023/01/01 12:34:00;;;;;;;6.80;4.97;;;24.90;79.80;;;;;;5014122;28;20184;-75
2023/01/01 12:36:51;;;;;;;5.20;4.70;;;24.60;79.70;;;;;;5014104;28;20679;-75
2023/01/01 12:39:47;;;;;;;9.07;5.40;;;25.50;78.40;;;;;;5013870;28;20294;-75
2023/01/01 12:42:43;;;;;;;7.43;4.95;;;25.40;74.40;;;;;;5014054;28;20262;-75
2023/01/01 12:45:25;;;;;;;5.70;5.30;;;25.20;73.90;;;;;;5013668;28;20214;-75
2023/01/01 12:48:23;;;;;;;8.32;5.38;;;24.90;75.10;;;;;;5012947;28;20667;-75
2023/01/01 12:51:02;;;;;;;8.75;4.40;;;24.80;72.80;;;;;;4997904;28;20199;-75
2023/01/01 12:53:37;;;;;;;5.88;5.35;;;24.70;73.00;;;;;;5033522;28;20186;-75
2023/01/01 12:56:17;;;;;;;4.90;4.35;;;24.90;74.10;;;;;;5032288;28;20205;-75
2023/01/01 12:58:56;;;;;;;5.47;4.28;;;24.60;72.90;;;;;;5032926;28;20229;-75